Time;durP1;ratioP1;P1;durP2;ratioP2;P2;SDS_P1;SDS_P2;PMS_P1;PMS_P2;Temp;Humidity;BMP_temperature;BMP_pressure;BME280_temperature;BME280_humidity;BME280_pressure;Samples;Min_cycle;Max_cycle;Signal;HPM_P1;HPM_P2
2022/03/02 00:01:05;;;;;;;44.53;22.00;;;-0.70;99.90;;;;;;5136718;27;20709;-87
2022/03/02 00:03:33;;;;;;;44.83;23.23;;;-0.70;99.90;;;;;;5136887;27;20410;-87
2022/03/02 00:06:00;;;;;;;44.30;22.53;;;-0.60;99.90;;;;;;5137109;27;20227;-86
2022/03/02 00:08:28;;;;;;;49.10;23.50;;;-0.70;99.90;;;;;;5136637;27;20185;-87
2022/03/02 00:10:55;;;;;;;46.13;23.17;;;-0.70;99.90;;;;;;5136250;27;20512;-87
2022/03/02 00:13:22;;;;;;;46.17;22.37;;;-0.70;99.90;;;;;;5136001;27;20239;-87
2022/03/02 00:15:49;;;;;;;46.00;21.97;;;-0.70;99.90;;;;;;5135671;27;20185;-86
2022/03/02 00:18:16;;;;;;;45.87;21.27;;;-0.70;99.90;;;;;;5135814;27;20198;-86
2022/03/02 00:20:43;;;;;;;43.03;21.23;;;-0.70;99.90;;;;;;5135556;27;20230;-86
2022/03/02 00:23:10;;;;;;;44.67;20.67;;;-0.70;99.90;;;;;;5135662;27;20227;-86
2022/03/02 00:25:39;;;;;;;40.53;20.80;;;-0.70;99.90;;;;;;5136178;27;20213;-87
2022/03/02 00:28:06;;;;;;;52.10;23.50;;;-0.70;99.90;;;;;;5136562;27;20571;-86
2022/03/02 00:30:34;;;;;;;50.53;24.27;;;-0.70;99.90;;;;;;5135758;27;20185;-87
2022/03/02 00:33:01;;;;;;;46.13;22.97;;;-0.80;99.90;;;;;;5134640;27;20224;-87
2022/03/02 00:35:28;;;;;;;48.80;23.27;;;-0.80;99.90;;;;;;5135728;27;20188;-87
2022/03/02 00:37:55;;;;;;;45.07;21.37;;;-0.80;99.90;;;;;;5135374;27;20630;-86
2022/03/02 00:40:22;;;;;;;45.53;23.53;;;-0.80;99.90;;;;;;5135274;27;20186;-86
2022/03/02 00:42:53;;;;;;;42.13;22.13;;;-0.80;99.90;;;;;;5135176;27;20193;-87
2022/03/02 00:45:20;;;;;;;39.67;19.93;;;-0.80;99.90;;;;;;5135156;27;20548;-87
2022/03/02 00:47:47;;;;;;;44.53;20.40;;;-0.80;99.90;;;;;;5135215;27;20238;-86
2022/03/02 00:50:15;;;;;;;43.80;19.43;;;-0.80;99.90;;;;;;5135223;27;20646;-87
2022/03/02 00:52:43;;;;;;;48.00;21.53;;;-0.80;99.90;;;;;;5134995;27;20190;-86
2022/03/02 00:55:11;;;;;;;42.77;21.30;;;-0.80;99.90;;;;;;5135065;27;20690;-87
2022/03/02 00:57:38;;;;;;;48.20;21.73;;;-0.90;99.90;;;;;;5135212;27;20629;-86
2022/03/02 01:00:08;;;;;;;43.40;20.73;;;-0.90;99.90;;;;;;5135156;27;20193;-86
2022/03/02 01:02:35;;;;;;;44.53;20.97;;;-1.00;99.90;;;;;;5135365;27;20231;-87
2022/03/02 01:05:02;;;;;;;39.40;20.83;;;-1.10;99.90;;;;;;5135123;27;20235;-87
2022/03/02 01:07:29;;;;;;;35.57;18.30;;;-1.10;99.90;;;;;;5135737;27;20535;-86
2022/03/02 01:09:56;;;;;;;37.23;19.67;;;-1.20;99.90;;;;;;5134516;27;20185;-86
2022/03/02 01:12:23;;;;;;;34.10;18.27;;;-1.30;99.90;;;;;;5134703;27;20194;-86
2022/03/02 01:14:51;;;;;;;39.47;19.03;;;-1.40;99.90;;;;;;5134622;27;20231;-86
2022/03/02 01:17:20;;;;;;;32.40;17.37;;;-1.50;99.90;;;;;;5134434;27;20634;-86
2022/03/02 01:19:48;;;;;;;38.00;18.13;;;-1.60;99.90;;;;;;5128640;27;20186;-86
2022/03/02 01:22:16;;;;;;;35.10;17.57;;;-1.70;99.90;;;;;;5113709;28;20190;-87
2022/03/02 01:24:44;;;;;;;32.73;17.47;;;-1.80;99.90;;;;;;5113992;28;20270;-86
2022/03/02 01:27:11;;;;;;;33.63;17.67;;;-2.00;99.90;;;;;;5114312;28;20518;-86
2022/03/02 01:29:38;;;;;;;37.53;18.53;;;-2.00;99.90;;;;;;5128777;27;20242;-86
2022/03/02 01:32:07;;;;;;;32.80;18.47;;;-2.10;99.90;;;;;;5134482;27;20189;-85
2022/03/02 01:34:36;;;;;;;36.47;17.40;;;-2.20;99.90;;;;;;5134658;27;20239;-86
2022/03/02 01:37:04;;;;;;;34.10;15.47;;;-2.30;99.90;;;;;;5134477;27;20186;-86
2022/03/02 01:39:31;;;;;;;30.43;15.97;;;-2.40;99.90;;;;;;5133994;27;20185;-86
2022/03/02 01:41:58;;;;;;;35.33;18.60;;;-2.50;99.90;;;;;;5134718;27;20238;-86
2022/03/02 01:44:25;;;;;;;35.20;18.47;;;-2.50;99.90;;;;;;5133768;27;20221;-86
2022/03/02 01:46:52;;;;;;;36.13;18.10;;;-2.60;99.90;;;;;;5134234;27;20198;-86
2022/03/02 01:49:20;;;;;;;35.53;18.03;;;-2.60;99.90;;;;;;5133973;27;20242;-86
2022/03/02 01:51:48;;;;;;;35.80;18.33;;;-2.60;99.90;;;;;;5133697;27;20230;-86
2022/03/02 01:54:15;;;;;;;36.03;18.40;;;-2.70;99.90;;;;;;5134130;27;20222;-86
2022/03/02 01:56:42;;;;;;;36.87;18.33;;;-2.70;99.90;;;;;;5133654;27;20189;-87
2022/03/02 01:59:10;;;;;;;38.47;18.60;;;-2.70;99.90;;;;;;5134292;27;20190;-86
2022/03/02 02:01:37;;;;;;;37.80;17.77;;;-2.80;99.90;;;;;;5134005;27;20280;-86
2022/03/02 02:04:05;;;;;;;35.97;17.47;;;-2.80;99.90;;;;;;5133504;27;20604;-86
2022/03/02 02:06:33;;;;;;;41.50;19.27;;;-2.80;1.00;;;;;;5133929;27;20221;-86
2022/03/02 02:09:03;;;;;;;42.20;20.00;;;-2.80;1.00;;;;;;5134167;27;20254;-86
2022/03/02 02:11:31;;;;;;;39.47;18.60;;;-2.80;1.00;;;;;;5133990;27;20221;-86
2022/03/02 02:13:58;;;;;;;35.97;18.43;;;-2.80;1.00;;;;;;5133613;27;20225;-86
2022/03/02 02:16:25;;;;;;;42.90;20.20;;;-2.80;1.00;;;;;;5134087;27;20181;-86
2022/03/02 02:18:54;;;;;;;43.03;19.83;;;-2.80;1.00;;;;;;5133581;27;20242;-86
2022/03/02 02:21:23;;;;;;;41.03;19.87;;;-2.80;1.00;;;;;;5133602;27;20185;-86
2022/03/02 02:23:51;;;;;;;38.80;19.87;;;-2.80;1.00;;;;;;5132944;27;20181;-85
2022/03/02 02:26:21;;;;;;;40.30;18.27;;;-2.80;1.00;;;;;;5133709;27;20238;-86
2022/03/02 02:28:49;;;;;;;43.33;19.97;;;-2.80;1.00;;;;;;5133738;28;20233;-85
2022/03/02 02:31:17;;;;;;;41.40;20.07;;;-2.80;1.00;;;;;;5132684;28;20213;-86
2022/03/02 02:33:47;;;;;;;39.97;18.97;;;-2.80;1.00;;;;;;5133178;28;20182;-87
2022/03/02 02:36:15;;;;;;;38.30;18.37;;;-2.80;1.00;;;;;;5132955;28;20535;-86
2022/03/02 02:38:43;;;;;;;38.60;17.87;;;-2.80;1.00;;;;;;5133549;28;20531;-84
2022/03/02 02:41:11;;;;;;;36.97;19.10;;;-2.80;1.00;;;;;;5133112;28;20192;-86
2022/03/02 02:43:42;;;;;;;48.87;25.03;;;-2.80;1.00;;;;;;5133542;28;20189;-85
2022/03/02 02:46:09;;;;;;;41.23;21.30;;;-2.80;1.00;;;;;;5133761;28;20212;-85
2022/03/02 02:48:37;;;;;;;46.57;21.97;;;-2.80;1.00;;;;;;5132692;28;20190;-85
2022/03/02 02:51:05;;;;;;;44.10;21.53;;;-2.80;1.00;;;;;;5133302;28;20225;-85
2022/03/02 02:53:32;;;;;;;48.80;23.07;;;-2.90;1.00;;;;;;5133088;28;20182;-86
2022/03/02 02:56:02;;;;;;;44.23;21.83;;;-2.90;1.00;;;;;;5134262;27;20250;-86
2022/03/02 02:58:29;;;;;;;49.17;23.17;;;-2.90;1.00;;;;;;5137373;27;20180;-86
2022/03/02 03:00:56;;;;;;;50.60;23.80;;;-2.90;1.00;;;;;;5137211;27;20177;-85
2022/03/02 03:03:24;;;;;;;47.10;23.60;;;-2.90;1.00;;;;;;5137171;27;20187;-85
2022/03/02 03:05:52;;;;;;;54.40;25.50;;;-2.90;1.00;;;;;;5136822;27;20693;-86
2022/03/02 03:08:19;;;;;;;48.27;23.63;;;-3.00;1.00;;;;;;5136854;27;20194;-86
2022/03/02 03:10:47;;;;;;;51.73;25.30;;;-3.00;1.00;;;;;;5137162;27;20189;-86
2022/03/02 03:13:17;;;;;;;59.53;26.67;;;-3.00;1.00;;;;;;5137092;27;20182;-85
2022/03/02 03:15:44;;;;;;;52.87;25.13;;;-3.00;1.00;;;;;;5137326;27;20224;-86
2022/03/02 03:18:11;;;;;;;54.83;24.87;;;-3.00;1.00;;;;;;5137158;27;20194;-86
2022/03/02 03:20:38;;;;;;;54.00;23.63;;;-3.00;1.00;;;;;;5136972;27;20250;-85
2022/03/02 03:23:08;;;;;;;54.13;23.67;;;-3.00;1.00;;;;;;5136279;27;20638;-86
2022/03/02 03:25:35;;;;;;;49.70;23.93;;;-3.00;1.00;;;;;;5136486;27;20209;-84
2022/03/02 03:28:02;;;;;;;46.83;23.00;;;-3.10;1.00;;;;;;5136766;27;20702;-86
2022/03/02 03:30:31;;;;;;;44.23;21.70;;;-3.10;1.00;;;;;;5136686;27;20507;-86
2022/03/02 03:32:59;;;;;;;42.47;19.70;;;-3.10;1.00;;;;;;5136823;27;20182;-86
2022/03/02 03:35:27;;;;;;;41.37;20.83;;;-3.10;1.00;;;;;;5136524;27;20638;-86
2022/03/02 03:37:54;;;;;;;39.83;19.27;;;-3.20;1.00;;;;;;5136515;27;20194;-85
2022/03/02 03:40:22;;;;;;;42.70;20.50;;;-3.20;1.00;;;;;;5136294;27;20221;-86
2022/03/02 03:42:50;;;;;;;46.37;21.03;;;-3.20;1.00;;;;;;5136551;27;20189;-85
2022/03/02 03:45:17;;;;;;;41.77;20.53;;;-3.20;1.00;;;;;;5136428;27;20332;-85
2022/03/02 03:47:46;;;;;;;45.40;21.07;;;-3.20;1.00;;;;;;5136138;27;20580;-85
2022/03/02 03:50:14;;;;;;;42.60;20.60;;;-3.20;1.00;;;;;;5136554;27;20182;-85
2022/03/02 03:52:41;;;;;;;47.77;21.50;;;-3.20;1.00;;;;;;5135675;27;20185;-86
2022/03/02 03:55:12;;;;;;;45.30;21.33;;;-3.20;1.00;;;;;;5135867;27;20707;-85
2022/03/02 03:57:39;;;;;;;44.43;21.10;;;-3.10;1.00;;;;;;5136302;27;20177;-85
2022/03/02 04:00:09;;;;;;;41.93;20.77;;;-3.20;1.00;;;;;;5136117;27;20190;-85
2022/03/02 04:02:36;;;;;;;51.30;21.97;;;-3.10;1.00;;;;;;5135693;27;20536;-85
2022/03/02 04:05:05;;;;;;;55.47;23.33;;;-3.10;1.00;;;;;;5136276;27;20202;-84
2022/03/02 04:07:32;;;;;;;49.57;23.30;;;-3.10;1.00;;;;;;5135587;27;20276;-85
2022/03/02 04:10:00;;;;;;;54.73;24.93;;;-3.10;1.00;;;;;;5135616;27;20182;-86
2022/03/02 04:12:27;;;;;;;60.17;24.60;;;-3.10;1.00;;;;;;5135683;27;20637;-87
2022/03/02 04:14:55;;;;;;;54.67;25.90;;;-3.00;1.00;;;;;;5136154;27;20556;-86
2022/03/02 04:17:22;;;;;;;54.50;25.53;;;-3.00;1.00;;;;;;5135517;27;20277;-86
2022/03/02 04:19:49;;;;;;;53.90;25.67;;;-3.00;1.00;;;;;;5135763;27;20190;-85
2022/03/02 04:22:18;;;;;;;56.93;26.40;;;-3.10;1.00;;;;;;5135661;27;20189;-84
2022/03/02 04:24:46;;;;;;;54.97;25.53;;;-3.10;1.00;;;;;;5135603;27;20615;-85
2022/03/02 04:27:13;;;;;;;53.23;25.57;;;-3.10;1.00;;;;;;5135671;27;20189;-85
2022/03/02 04:29:40;;;;;;;56.17;24.40;;;-3.20;1.00;;;;;;5135806;27;20190;-86
2022/03/02 04:32:08;;;;;;;53.30;24.87;;;-3.20;1.00;;;;;;5136005;27;20190;-85
2022/03/02 04:34:35;;;;;;;52.87;25.70;;;-3.20;1.00;;;;;;5135385;27;20190;-86
2022/03/02 04:37:02;;;;;;;57.40;23.73;;;-3.20;1.00;;;;;;5135668;27;20254;-87
2022/03/02 04:39:31;;;;;;;49.67;23.90;;;-3.20;1.00;;;;;;5135230;27;20630;-86
2022/03/02 04:41:58;;;;;;;52.37;24.17;;;-3.20;1.00;;;;;;5135071;27;20701;-86
2022/03/02 04:44:25;;;;;;;48.30;24.60;;;-3.30;1.00;;;;;;5135160;27;20249;-86
2022/03/02 04:46:52;;;;;;;50.47;22.17;;;-3.20;1.00;;;;;;5134971;27;20266;-87
2022/03/02 04:49:20;;;;;;;47.83;22.37;;;-3.20;1.00;;;;;;5135245;27;20194;-86
2022/03/02 04:51:48;;;;;;;46.77;22.00;;;-3.20;1.00;;;;;;5134701;27;20178;-86
2022/03/02 04:56:59;;;;;;;69.33;32.03;;;-3.20;1.00;;;;;;5133935;27;20177;-86
2022/03/02 04:59:26;;;;;;;49.50;21.63;;;-3.20;1.00;;;;;;5135184;27;20239;-86
2022/03/02 05:01:53;;;;;;;54.03;23.53;;;-3.20;1.00;;;;;;5134953;27;20181;-86
2022/03/02 05:04:20;;;;;;;53.77;25.13;;;-3.30;1.00;;;;;;5134661;27;20230;-86
2022/03/02 05:06:47;;;;;;;58.77;28.50;;;-3.20;1.00;;;;;;5134889;27;20222;-86
2022/03/02 05:09:14;;;;;;;53.70;24.30;;;-3.20;1.00;;;;;;5134597;27;20695;-86
2022/03/02 05:11:41;;;;;;;54.43;23.63;;;-3.20;1.00;;;;;;5134938;27;20243;-86
2022/03/02 05:14:10;;;;;;;53.83;24.00;;;-3.30;1.00;;;;;;5135112;27;20227;-86
2022/03/02 05:16:37;;;;;;;51.57;24.67;;;-3.20;1.00;;;;;;5134953;27;20272;-86
2022/03/02 05:19:04;;;;;;;52.97;25.83;;;-3.30;1.00;;;;;;5134406;27;20601;-86
2022/03/02 05:21:31;;;;;;;52.80;27.27;;;-3.20;1.00;;;;;;5134471;27;20227;-86
2022/03/02 05:23:58;;;;;;;62.67;27.47;;;-3.30;1.00;;;;;;5134279;27;20215;-86
2022/03/02 05:26:25;;;;;;;51.83;25.33;;;-3.30;1.00;;;;;;5134615;27;20238;-86
2022/03/02 05:28:52;;;;;;;140.43;66.93;;;-3.30;1.00;;;;;;5134429;27;20213;-86
2022/03/02 05:31:21;;;;;;;69.57;29.33;;;-3.30;1.00;;;;;;5133877;27;20239;-86
2022/03/02 05:33:48;;;;;;;55.37;26.20;;;-3.30;1.00;;;;;;5134348;27;20242;-86
2022/03/02 05:36:15;;;;;;;55.17;26.73;;;-3.30;1.00;;;;;;5134039;27;20190;-86
2022/03/02 05:38:42;;;;;;;54.10;26.63;;;-3.30;1.00;;;;;;5135553;27;20223;-86
2022/03/02 05:41:09;;;;;;;52.80;25.70;;;-3.30;1.00;;;;;;5133886;27;20595;-86
2022/03/02 05:43:36;;;;;;;55.23;26.47;;;-3.30;1.00;;;;;;5134210;27;20200;-86
2022/03/02 05:46:03;;;;;;;56.70;27.07;;;-3.20;1.00;;;;;;5136212;27;20213;-86
2022/03/02 05:48:32;;;;;;;55.85;27.75;;;-3.20;1.00;;;;;;5141301;27;20200;-85
2022/03/02 05:50:59;;;;;;;65.00;28.67;;;-3.10;1.00;;;;;;5138707;27;20189;-86
2022/03/02 05:53:29;;;;;;;62.27;31.00;;;-3.10;1.00;;;;;;5141436;27;20189;-89
2022/03/02 05:55:56;;;;;;;54.07;26.37;;;-3.00;1.00;;;;;;5140635;27;20182;-87
2022/03/02 05:58:23;;;;;;;59.37;27.33;;;-3.00;1.00;;;;;;5143118;27;20186;-84
2022/03/02 06:00:51;;;;;;;55.80;26.83;;;-2.90;1.00;;;;;;5135702;27;20193;-87
2022/03/02 06:03:19;;;;;;;54.53;26.97;;;-2.90;1.00;;;;;;5140212;27;20157;-86
2022/03/02 06:05:49;;;;;;;57.67;26.43;;;-2.80;1.00;;;;;;5139383;27;20230;-86
2022/03/02 06:08:16;;;;;;;54.43;26.80;;;-2.70;1.00;;;;;;5139075;27;20246;-85
2022/03/02 06:10:44;;;;;;;54.60;28.10;;;-2.70;1.00;;;;;;5140318;27;20177;-85
2022/03/02 06:13:14;;;;;;;63.63;29.17;;;-2.50;31.60;;;;;;5143355;27;20242;-87
2022/03/02 06:15:42;;;;;;;57.93;29.43;;;-2.20;86.50;;;;;;5140327;27;20193;-84
2022/03/02 06:18:09;;;;;;;66.73;32.63;;;-2.00;99.90;;;;;;5141248;27;20182;-88
2022/03/02 06:20:37;;;;;;;61.77;31.57;;;-1.40;99.90;;;;;;5139548;27;20182;-85
2022/03/02 06:23:05;;;;;;;58.47;27.77;;;-0.80;1.00;;;;;;5138193;27;20238;-84
2022/03/02 06:25:33;;;;;;;54.43;26.13;;;-0.40;1.00;;;;;;5140014;27;20697;-85
2022/03/02 06:28:00;;;;;;;52.53;27.13;;;-0.10;1.00;;;;;;5134703;27;20638;-86
2022/03/02 06:30:29;;;;;;;54.20;25.40;;;0.20;99.90;;;;;;5138659;27;20186;-89
2022/03/02 06:32:56;;;;;;;52.17;25.50;;;0.30;99.90;;;;;;5136527;28;20186;-85
2022/03/02 06:35:23;;;;;;;46.53;23.77;;;0.40;13.50;;;;;;5136386;28;20190;-85
2022/03/02 06:37:50;;;;;;;48.03;25.27;;;0.50;1.00;;;;;;5136908;28;20182;-84
2022/03/02 06:40:18;;;;;;;50.40;25.80;;;0.50;1.00;;;;;;5136097;28;20238;-85
2022/03/02 06:43:00;;;;;;;46.67;24.90;;;0.80;99.90;;;;;;5137031;28;20205;-88
2022/03/02 06:45:45;;;;;;;50.07;24.40;;;1.50;99.90;;;;;;5137009;28;20251;-90
2022/03/02 06:48:13;;;;;;;55.53;27.97;;;2.00;99.90;;;;;;5142327;28;20701;-86
2022/03/02 06:50:47;;;;;;;64.60;28.47;;;2.50;99.90;;;;;;5136923;28;20630;-84
2022/03/02 06:53:16;;;;;;;59.23;28.53;;;2.90;99.90;;;;;;5136217;28;20202;-85
2022/03/02 06:55:45;;;;;;;57.67;27.17;;;3.20;93.50;;;;;;5140022;28;20193;-89
2022/03/02 06:58:18;;;;;;;46.87;21.77;;;3.50;1.00;;;;;;5136044;28;20193;-89
2022/03/02 07:00:58;;;;;;;49.27;21.90;;;3.70;1.00;;;;;;5137339;28;20256;-84
2022/03/02 07:03:29;;;;;;;45.43;20.90;;;3.80;1.00;;;;;;5139415;28;20209;-84
2022/03/02 07:05:57;;;;;;;44.50;23.70;;;4.10;1.00;;;;;;5121692;28;20224;-85
2022/03/02 07:08:29;;;;;;;58.77;24.80;;;4.40;1.00;;;;;;5120681;28;20044;-84
2022/03/02 07:10:58;;;;;;;51.47;25.50;;;5.00;25.70;;;;;;5129087;28;20280;-85
2022/03/02 07:13:27;;;;;;;61.77;29.60;;;5.90;99.90;;;;;;5139375;28;20189;-84
2022/03/02 07:15:54;;;;;;;65.97;28.90;;;6.80;99.90;;;;;;5127269;28;20550;-83
2022/03/02 07:18:21;;;;;;;82.73;42.57;;;7.10;1.00;;;;;;5115927;28;20701;-85
2022/03/02 07:20:54;;;;;;;108.57;52.57;;;7.40;1.00;;;;;;5120496;28;20260;-89
2022/03/02 07:23:24;;;;;;;69.83;38.23;;;7.90;1.00;;;;;;5118949;28;20195;-85
2022/03/02 07:25:54;;;;;;;65.03;36.13;;;8.60;1.00;;;;;;5117013;28;20751;-86
2022/03/02 07:28:24;;;;;;;68.73;37.67;;;9.00;99.90;;;;;;5116340;28;20590;-87
2022/03/02 07:30:57;;;;;;;57.23;32.27;;;9.40;99.90;;;;;;5116515;28;20544;-87
2022/03/02 07:33:26;;;;;;;66.67;38.03;;;9.80;99.90;;;;;;5116110;28;20177;-85
2022/03/02 07:35:57;;;;;;;91.10;49.87;;;10.10;99.90;;;;;;5120240;28;20197;-86
2022/03/02 07:38:24;;;;;;;80.27;44.03;;;10.00;5.40;;;;;;5117364;28;20235;-85
2022/03/02 07:40:52;;;;;;;65.67;37.60;;;9.60;1.00;;;;;;5128047;28;20544;-87
2022/03/02 07:43:20;;;;;;;71.17;37.53;;;9.40;1.00;;;;;;5125110;27;20187;-86
2022/03/02 07:45:48;;;;;;;70.60;40.10;;;9.10;1.00;;;;;;5132021;27;20242;-85
2022/03/02 07:48:16;;;;;;;76.97;39.77;;;8.70;1.00;;;;;;5126718;27;20189;-86
2022/03/02 07:50:49;;;;;;;79.60;41.50;;;8.30;1.00;;;;;;5122567;27;20246;-85
2022/03/02 07:53:17;;;;;;;78.43;42.27;;;8.00;1.00;;;;;;5120653;27;20200;-85
2022/03/02 07:55:46;;;;;;;79.77;43.67;;;7.90;1.00;;;;;;5123538;27;20549;-86
2022/03/02 07:58:14;;;;;;;70.47;38.80;;;7.90;1.00;;;;;;5142166;27;20190;-89
2022/03/02 08:00:41;;;;;;;70.13;37.07;;;8.00;1.00;;;;;;5136410;27;20184;-86
2022/03/02 08:03:12;;;;;;;69.03;36.80;;;8.00;1.00;;;;;;5119018;28;20198;-88
2022/03/02 08:05:41;;;;;;;63.20;34.67;;;8.10;1.00;;;;;;5126367;27;20215;-86
2022/03/02 08:08:08;;;;;;;67.50;33.80;;;8.30;1.00;;;;;;5123113;27;20202;-87
2022/03/02 08:10:39;;;;;;;58.77;33.17;;;8.50;1.00;;;;;;5145057;27;20197;-90
2022/03/02 08:13:07;;;;;;;56.77;32.47;;;8.60;1.00;;;;;;5138468;27;20674;-85
2022/03/02 08:15:35;;;;;;;53.60;30.03;;;8.70;1.00;;;;;;5119028;28;20188;-86
2022/03/02 08:18:05;;;;;;;52.63;31.43;;;8.70;1.00;;;;;;5125504;27;20193;-86
2022/03/02 08:20:35;;;;;;;67.17;37.30;;;8.80;1.00;;;;;;5124888;27;20570;-86
2022/03/02 08:23:05;;;;;;;53.97;33.00;;;9.00;1.00;;;;;;5126946;27;20186;-85
2022/03/02 08:25:34;;;;;;;54.73;32.13;;;9.40;1.00;;;;;;5134851;27;20520;-87
2022/03/02 08:28:02;;;;;;;54.83;32.67;;;9.80;1.00;;;;;;5139300;27;20211;-86
2022/03/02 08:30:32;;;;;;;55.90;31.50;;;10.20;1.00;;;;;;5127359;27;20239;-87
2022/03/02 08:33:02;;;;;;;51.43;28.93;;;10.70;1.00;;;;;;5117028;27;20656;-84
2022/03/02 08:35:34;;;;;;;51.37;29.93;;;11.40;1.00;;;;;;5128923;27;20179;-86
2022/03/02 08:38:03;;;;;;;51.00;29.23;;;12.00;1.00;;;;;;5138624;27;20189;-88
2022/03/02 08:40:30;;;;;;;54.22;32.47;;;12.50;1.00;;;;;;5136756;27;20188;-86
2022/03/02 08:43:00;;;;;;;55.83;32.85;;;13.10;1.00;;;;;;5132340;27;20201;-85
2022/03/02 08:45:30;;;;;;;59.75;35.05;;;13.60;1.00;;;;;;5116817;28;20187;-87
2022/03/02 08:48:00;;;;;;;57.65;35.28;;;14.20;1.00;;;;;;5126496;27;20618;-87
2022/03/02 08:50:27;;;;;;;60.28;36.75;;;14.70;1.00;;;;;;5135632;27;20186;-86
2022/03/02 08:52:58;;;;;;;56.55;33.78;;;15.20;1.00;;;;;;5137065;27;20645;-86
2022/03/02 08:55:32;;;;;;;55.63;33.80;;;15.40;1.00;;;;;;5138028;27;20247;-85
2022/03/02 08:57:59;;;;;;;47.17;29.63;;;15.60;1.00;;;;;;5140793;27;20258;-85
2022/03/02 09:00:31;;;;;;;49.28;31.02;;;15.80;1.00;;;;;;5142193;27;20182;-91
2022/03/02 09:03:00;;;;;;;44.97;28.52;;;16.00;1.00;;;;;;5139214;27;20189;-86
2022/03/02 09:05:28;;;;;;;42.17;26.83;;;16.20;1.00;;;;;;5132586;27;20198;-86
2022/03/02 09:07:56;;;;;;;42.10;25.88;;;16.40;1.00;;;;;;5140826;27;20183;-87
2022/03/02 09:10:24;;;;;;;43.40;28.10;;;16.70;1.00;;;;;;5135798;27;20186;-85
2022/03/02 09:12:52;;;;;;;41.17;25.10;;;16.90;1.00;;;;;;5143471;27;20238;-90
2022/03/02 09:15:20;;;;;;;43.10;28.70;;;17.00;1.00;;;;;;5133672;27;20197;-86
2022/03/02 09:17:47;;;;;;;41.92;26.77;;;16.90;1.00;;;;;;5140054;27;20288;-87
2022/03/02 09:20:16;;;;;;;37.05;24.00;;;16.90;1.00;;;;;;5122197;27;20755;-86
2022/03/02 09:22:45;;;;;;;40.33;24.17;;;16.80;1.00;;;;;;5116418;28;20280;-85
2022/03/02 09:25:12;;;;;;;38.28;24.58;;;16.60;1.00;;;;;;5114401;27;20191;-86
2022/03/02 09:27:40;;;;;;;42.42;24.55;;;16.50;1.00;;;;;;5117387;28;20714;-85
2022/03/02 09:30:12;;;;;;;38.53;22.33;;;16.80;1.00;;;;;;5120790;27;20980;-87
2022/03/02 09:32:44;;;;;;;42.38;22.90;;;17.20;1.00;;;;;;5131450;27;20213;-87
2022/03/02 09:35:16;;;;;;;43.42;28.67;;;17.50;1.00;;;;;;5132833;27;20198;-86
2022/03/02 09:37:49;;;;;;;34.47;23.42;;;17.70;1.00;;;;;;5134927;27;20199;-85
2022/03/02 09:40:23;;;;;;;34.88;22.30;;;17.70;1.00;;;;;;5136012;27;20210;-86
2022/03/02 09:42:56;;;;;;;58.90;34.72;;;17.50;1.00;;;;;;5139116;27;20173;-92
2022/03/02 09:45:31;;;;;;;38.15;24.65;;;17.40;1.00;;;;;;5138861;27;20570;-86
2022/03/02 09:48:00;;;;;;;39.33;24.02;;;17.40;1.00;;;;;;5141873;27;20182;-87
2022/03/02 09:50:31;;;;;;;35.33;20.88;;;17.30;1.00;;;;;;5143394;27;20214;-89
2022/03/02 09:53:02;;;;;;;33.53;21.17;;;16.90;1.00;;;;;;5140095;27;20190;-90
2022/03/02 09:55:31;;;;;;;34.70;19.45;;;16.50;1.00;;;;;;5138036;27;20171;-87
2022/03/02 09:57:59;;;;;;;35.45;19.23;;;16.10;1.00;;;;;;5132372;27;20206;-86
2022/03/02 10:00:36;;;;;;;31.73;18.40;;;15.90;1.00;;;;;;5122827;27;20252;-91
2022/03/02 10:03:20;;;;;;;29.08;17.92;;;15.60;1.00;;;;;;5120119;28;20231;-91
2022/03/02 10:05:49;;;;;;;32.28;17.92;;;15.20;1.00;;;;;;5128078;27;20225;-85
2022/03/02 10:08:20;;;;;;;35.30;19.67;;;14.60;1.00;;;;;;5127862;27;20193;-85
2022/03/02 10:10:49;;;;;;;34.10;19.53;;;14.30;1.00;;;;;;5134842;27;20652;-86
2022/03/02 10:13:19;;;;;;;33.13;18.87;;;14.20;1.00;;;;;;5121094;27;20191;-85
2022/03/02 10:15:48;;;;;;;29.87;17.07;;;14.00;1.00;;;;;;5123961;27;20198;-88
2022/03/02 10:18:15;;;;;;;30.90;17.67;;;13.80;1.00;;;;;;5121905;28;20216;-85
2022/03/02 10:20:44;;;;;;;26.37;15.93;;;13.50;1.00;;;;;;5116622;28;20199;-86
2022/03/02 10:23:35;;;;;;;33.80;18.10;;;13.30;1.00;;;;;;5120755;28;20202;-86
2022/03/02 10:26:06;;;;;;;29.67;16.67;;;13.10;1.00;;;;;;5117646;28;20196;-85
2022/03/02 10:28:48;;;;;;;30.83;16.67;;;13.00;1.00;;;;;;5121566;28;20182;-86
2022/03/02 10:31:39;;;;;;;29.70;16.70;;;12.80;1.00;;;;;;5131026;28;20183;-87
2022/03/02 10:34:24;;;;;;;31.40;15.33;;;12.60;1.00;;;;;;5132079;28;20186;-86
2022/03/02 10:37:03;;;;;;;28.27;14.37;;;12.50;1.00;;;;;;5133867;28;20243;-85
2022/03/02 10:39:43;;;;;;;26.77;14.17;;;12.30;1.00;;;;;;5137051;28;20183;-86
2022/03/02 10:42:23;;;;;;;23.70;16.17;;;12.00;1.00;;;;;;5115480;28;20187;-84
2022/03/02 10:45:04;;;;;;;30.60;14.00;;;11.70;1.00;;;;;;5129608;28;20244;-86
2022/03/02 10:47:54;;;;;;;23.07;12.77;;;11.40;1.00;;;;;;5133192;28;20675;-84
2022/03/02 10:50:30;;;;;;;25.03;13.67;;;11.10;1.00;;;;;;5127482;28;20312;-88
2022/03/02 10:53:15;;;;;;;28.00;17.30;;;10.80;1.00;;;;;;5137133;28;20281;-88
2022/03/02 10:55:45;;;;;;;29.60;18.33;;;10.60;1.00;;;;;;5121575;28;20185;-87
2022/03/02 10:58:15;;;;;;;24.47;13.43;;;10.50;1.00;;;;;;5118432;28;20210;-85
2022/03/02 11:00:44;;;;;;;25.97;13.80;;;10.40;1.00;;;;;;5142341;28;20173;-88
2022/03/02 11:03:14;;;;;;;22.23;14.43;;;10.40;1.00;;;;;;5137617;28;20236;-86
2022/03/02 11:05:42;;;;;;;28.07;13.93;;;10.30;1.00;;;;;;5123510;28;20209;-85
2022/03/02 11:08:09;;;;;;;28.20;17.47;;;10.30;1.00;;;;;;5119985;28;20191;-87
2022/03/02 11:10:39;;;;;;;43.53;22.93;;;10.30;1.00;;;;;;5127083;28;20610;-86
2022/03/02 11:13:12;;;;;;;62.60;27.20;;;10.30;1.00;;;;;;5139264;28;20186;-86
2022/03/02 11:15:49;;;;;;;21.57;11.60;;;10.30;1.00;;;;;;5138463;28;20599;-86
2022/03/02 11:18:19;;;;;;;22.43;12.23;;;10.20;1.00;;;;;;5131725;27;20672;-85
2022/03/02 11:21:01;;;;;;;78.50;32.03;;;10.20;1.00;;;;;;5120573;27;20189;-86
2022/03/02 11:23:36;;;;;;;18.63;10.63;;;10.20;1.00;;;;;;5121970;27;20197;-84
2022/03/02 11:26:11;;;;;;;50.53;23.80;;;10.10;1.00;;;;;;5130191;27;20220;-85
2022/03/02 11:28:44;;;;;;;25.47;13.77;;;10.10;1.00;;;;;;5139435;27;20208;-87
2022/03/02 11:31:11;;;;;;;26.60;14.00;;;10.00;1.00;;;;;;5132065;27;20212;-86
2022/03/02 11:33:40;;;;;;;28.03;14.13;;;10.00;1.00;;;;;;5130015;27;20192;-86
2022/03/02 11:36:11;;;;;;;26.40;13.20;;;9.90;1.00;;;;;;5121681;27;20636;-84
2022/03/02 11:42:03;;;;;;;26.17;13.50;;;9.90;1.00;;;;;;5136600;27;20251;-85
2022/03/02 11:44:35;;;;;;;27.70;15.47;;;9.80;1.00;;;;;;5134617;27;20195;-90
2022/03/02 11:47:14;;;;;;;20.50;11.47;;;9.80;1.00;;;;;;5119228;28;20532;-88
2022/03/02 11:49:52;;;;;;;25.07;13.87;;;9.70;1.00;;;;;;5118418;27;20185;-85
2022/03/02 11:52:22;;;;;;;24.50;13.07;;;9.60;1.00;;;;;;5118525;27;20185;-85
2022/03/02 11:54:51;;;;;;;29.93;13.63;;;9.50;1.00;;;;;;5120791;27;20623;-84
2022/03/02 11:57:23;;;;;;;29.20;14.90;;;9.60;1.00;;;;;;5142182;27;20548;-86
2022/03/02 12:00:07;;;;;;;34.70;17.83;;;9.70;1.00;;;;;;5138047;27;20187;-88
2022/03/02 12:02:53;;;;;;;36.13;20.77;;;9.60;1.00;;;;;;5131456;27;20186;-85
2022/03/02 12:05:23;;;;;;;31.67;16.80;;;9.60;1.00;;;;;;5124351;27;20193;-86
2022/03/02 12:07:52;;;;;;;27.00;16.10;;;9.70;1.00;;;;;;5142401;27;20542;-85
2022/03/02 12:10:25;;;;;;;24.13;15.17;;;9.70;1.00;;;;;;5143652;27;20192;-85
2022/03/02 12:12:59;;;;;;;28.63;16.60;;;9.70;1.00;;;;;;5140673;27;20182;-85
2022/03/02 12:15:47;;;;;;;31.67;17.63;;;9.80;1.00;;;;;;5144290;27;20218;-89
2022/03/02 12:18:20;;;;;;;25.50;15.10;;;9.90;1.00;;;;;;5141662;27;20236;-88
2022/03/02 12:20:50;;;;;;;26.30;15.93;;;9.90;1.00;;;;;;5131608;27;20176;-84
2022/03/02 12:23:22;;;;;;;26.17;16.80;;;10.00;1.00;;;;;;5141065;27;20187;-85
2022/03/02 12:25:49;;;;;;;26.30;16.40;;;10.00;1.00;;;;;;5136292;27;20524;-87
2022/03/02 12:28:18;;;;;;;26.53;15.20;;;10.10;1.00;;;;;;5138505;27;20190;-88
2022/03/02 12:30:45;;;;;;;26.67;16.10;;;10.10;1.00;;;;;;5138409;27;20189;-85
2022/03/02 12:33:13;;;;;;;26.83;15.07;;;10.10;1.00;;;;;;5119537;27;20255;-85
2022/03/02 12:35:43;;;;;;;25.27;15.50;;;10.10;1.00;;;;;;5118319;28;20187;-85
2022/03/02 12:38:13;;;;;;;25.03;14.67;;;10.10;1.00;;;;;;5118106;27;20194;-86
2022/03/02 12:40:41;;;;;;;25.70;14.77;;;10.10;1.00;;;;;;5117533;28;20618;-85
2022/03/02 12:43:10;;;;;;;26.00;14.63;;;10.10;1.00;;;;;;5116320;28;20198;-85
2022/03/02 12:45:42;;;;;;;23.07;14.30;;;10.00;1.00;;;;;;5116506;28;20187;-87
2022/03/02 12:48:16;;;;;;;21.77;13.20;;;10.00;1.00;;;;;;5116328;27;20538;-85
2022/03/02 12:54:12;;;;;;;23.50;14.33;;;9.70;1.00;;;;;;5126645;27;20175;-86
2022/03/02 12:56:49;;;;;;;22.10;12.57;;;9.60;1.00;;;;;;5128450;27;20192;-87